Wetterdaten: aktuell Samstag, 29.04.2017 19:25
Datum Zeit Luft-Temp. Wasser Feuchte A. Luftdruck Regen Wind Richtung Richtung Windben
29.04.2017 19:25 12.1 C 12.8 C 55 % 1015.5 hPa 0.0 l/m 1.9 km/h (1 Bft) O 85 8.7 km/h (2 Bft)
29.04.2017 18:25 13.1 C 11.7 C 42 % 1016.2 hPa 0.0 l/m 2.2 km/h (1 Bft) SW 218 7.2 km/h (2 Bft)
29.04.2017 17:25 12.9 C 11.7 C 46 % 1016.6 hPa 0.0 l/m 0.7 km/h (0 Bft) S 185 7.2 km/h (2 Bft)
29.04.2017 16:25 11.9 C 11.1 C 45 % 1017.0 hPa 0.0 l/m 1.4 km/h (1 Bft) N-NO 13 7.2 km/h (2 Bft)
29.04.2017 15:25 11.3 C 11.7 C 51 % 1017.4 hPa 0.0 l/m 6.9 km/h (2 Bft) N-NO 27 15.9 km/h (3 Bft)
29.04.2017 14:25 11.2 C 11.7 C 54 % 1017.7 hPa 0.0 l/m 2.5 km/h (1 Bft) O-NO 58 11.6 km/h (2 Bft)
29.04.2017 13:25 10.3 C 11.1 C 66 % 1018.2 hPa 0.3 l/m 3.3 km/h (1 Bft) NW 309 11.6 km/h (2 Bft)
29.04.2017 12:25 8.5 C 10.6 C 73 % 1018.9 hPa 0.0 l/m 0.6 km/h (0 Bft) SW 235 2.9 km/h (1 Bft)
29.04.2017 11:25 7.3 C 10.6 C 72 % 1019.6 hPa 0.0 l/m 6.5 km/h (2 Bft) S 175 10.1 km/h (2 Bft)
29.04.2017 10:25 6.2 C 10.6 C 80 % 1020.1 hPa 0.0 l/m 11.1 km/h (2 Bft) S-SO 149 17.4 km/h (3 Bft)
29.04.2017 09:25 4.9 C 10.6 C 86 % 1020.4 hPa 0.0 l/m 7.6 km/h (2 Bft) S 175 11.6 km/h (2 Bft)
29.04.2017 08:25 3.6 C 10.6 C 97 % 1020.5 hPa 0.0 l/m 8.5 km/h (2 Bft) S-SO 150 14.5 km/h (3 Bft)
29.04.2017 07:25 1.5 C 10.6 C 100 % 1020.5 hPa 0.0 l/m 0.2 km/h (0 Bft) SO 139 2.9 km/h (1 Bft)
29.04.2017 06:25 1.2 C 10.6 C 100 % 1020.5 hPa 0.0 l/m 1.2 km/h (1 Bft) SO 124 4.3 km/h (1 Bft)
29.04.2017 05:31 0.4 C 10.6 C 100 % 1022.5 hPa 0.0 l/m 2.9 km/h (1 Bft) SO 135 4.8 km/h (1 Bft)
29.04.2017 05:19 0.5 C 10.6 C 100 % 1022.5 hPa 0.0 l/m 0.0 km/h (0 Bft) SO 135 1.6 km/h (1 Bft)
29.04.2017 05:07 0.5 C 10.6 C 100 % 1022.6 hPa 0.0 l/m 0.0 km/h (0 Bft) S 180 0.0 km/h (0 Bft)
29.04.2017 04:55 0.7 C 10.6 C 100 % 1022.5 hPa 0.0 l/m 2.9 km/h (1 Bft) SO 135 4.8 km/h (1 Bft)
29.04.2017 04:43 0.6 C 10.6 C 100 % 1022.6 hPa 0.0 l/m 1.4 km/h (1 Bft) SO 135 4.8 km/h (1 Bft)
29.04.2017 04:31 0.7 C 10.6 C 100 % 1022.6 hPa 0.0 l/m 1.4 km/h (1 Bft) SO 135 4.8 km/h (1 Bft)
29.04.2017 04:19 0.7 C 10.6 C 100 % 1022.6 hPa 0.0 l/m 2.9 km/h (1 Bft) SO 135 4.8 km/h (1 Bft)
29.04.2017 04:07 0.9 C 10.6 C 100 % 1022.6 hPa 0.0 l/m 0.0 km/h (0 Bft) S 180 0.0 km/h (0 Bft)
29.04.2017 03:55 1.4 C 10.6 C 100 % 1022.6 hPa 0.0 l/m 0.0 km/h (0 Bft) S 180 0.0 km/h (0 Bft)
29.04.2017 03:43 1.5 C 10.6 C 100 % 1022.6 hPa 0.0 l/m 0.0 km/h (0 Bft) S 180 0.0 km/h (0 Bft)
29.04.2017 03:31 1.5 C 10.6 C 100 % 1022.5 hPa 0.0 l/m 0.0 km/h (0 Bft) SO 135 1.6 km/h (1 Bft)
29.04.2017 03:19 1.5 C 10.6 C 100 % 1022.5 hPa 0.0 l/m 0.0 km/h (0 Bft) S 180 0.0 km/h (0 Bft)
29.04.2017 03:07 1.5 C 10.6 C 100 % 1022.4 hPa 0.0 l/m 0.0 km/h (0 Bft) S 180 0.0 km/h (0 Bft)
29.04.2017 02:55 1.3 C 10.6 C 100 % 1022.4 hPa 0.0 l/m 4.3 km/h (1 Bft) SO 135 4.8 km/h (1 Bft)
29.04.2017 02:43 1.3 C 10.6 C 100 % 1022.5 hPa 0.0 l/m 5.8 km/h (2 Bft) SO 135 8.0 km/h (2 Bft)
29.04.2017 02:31 1.4 C 10.6 C 100 % 1022.5 hPa 0.0 l/m 2.9 km/h (1 Bft) SO 135 6.4 km/h (2 Bft)
29.04.2017 02:19 1.6 C 10.6 C 100 % 1022.5 hPa 0.0 l/m 4.3 km/h (1 Bft) SO 135 6.4 km/h (2 Bft)
29.04.2017 02:07 2.6 C 10.6 C 100 % 1022.6 hPa 0.0 l/m 0.0 km/h (0 Bft) S 180 0.0 km/h (0 Bft)
29.04.2017 01:55 2.8 C 10.6 C 100 % 1022.6 hPa 0.0 l/m 7.2 km/h (2 Bft) S-SO 157 9.7 km/h (2 Bft)
29.04.2017 01:43 2.2 C 10.6 C 100 % 1022.6 hPa 0.0 l/m 5.8 km/h (2 Bft) SO 135 9.7 km/h (2 Bft)
29.04.2017 01:31 1.8 C 10.6 C 100 % 1022.7 hPa 0.0 l/m 5.8 km/h (2 Bft) O-SO 112 8.0 km/h (2 Bft)
29.04.2017 01:19 2.0 C 10.6 C 100 % 1022.7 hPa 0.0 l/m 2.9 km/h (1 Bft) O-SO 112 4.8 km/h (1 Bft)
29.04.2017 01:07 2.2 C 10.6 C 100 % 1022.6 hPa 0.0 l/m 0.0 km/h (0 Bft) O-SO 112 1.6 km/h (1 Bft)
29.04.2017 00:55 2.3 C 10.6 C 100 % 1022.6 hPa 0.0 l/m 0.0 km/h (0 Bft) S 180 0.0 km/h (0 Bft)
29.04.2017 00:43 2.5 C 10.6 C 99 % 1022.5 hPa 0.0 l/m 4.3 km/h (1 Bft) O-SO 112 6.4 km/h (2 Bft)
29.04.2017 00:31 2.7 C 10.6 C 99 % 1022.5 hPa 0.0 l/m 4.3 km/h (1 Bft) O-SO 112 6.4 km/h (2 Bft)
29.04.2017 00:19 3.1 C 10.6 C 99 % 1022.6 hPa 0.0 l/m 0.0 km/h (0 Bft) S 180 0.0 km/h (0 Bft)
29.04.2017 00:07 3.3 C 10.6 C 99 % 1022.6 hPa 0.0 l/m 2.9 km/h (1 Bft) S-SO 157 4.8 km/h (1 Bft)
28.04.2017 23:55 3.4 C 10.6 C 98 % 1022.5 hPa 0.0 l/m 0.0 km/h (0 Bft) S 180 0.0 km/h (0 Bft)
28.04.2017 23:43 3.5 C 10.6 C 99 % 1022.6 hPa 0.0 l/m 4.3 km/h (1 Bft) SO 135 8.0 km/h (2 Bft)
28.04.2017 23:31 3.3 C 10.6 C 99 % 1022.5 hPa 0.0 l/m 5.8 km/h (2 Bft) SO 135 8.0 km/h (2 Bft)
28.04.2017 23:19 3.2 C 10.6 C 98 % 1022.3 hPa 0.0 l/m 5.8 km/h (2 Bft) O-SO 112 8.0 km/h (2 Bft)
28.04.2017 23:07 3.6 C 10.6 C 98 % 1022.2 hPa 0.0 l/m 7.2 km/h (2 Bft) O-SO 112 11.3 km/h (2 Bft)
28.04.2017 22:55 3.7 C 10.6 C 98 % 1022.3 hPa 0.3 l/m 5.8 km/h (2 Bft) O-SO 112 9.7 km/h (2 Bft)
28.04.2017 22:43 4.7 C 10.6 C 97 % 1022.2 hPa 0.3 l/m 11.6 km/h (2 Bft) SO 135 17.7 km/h (3 Bft)
28.04.2017 22:31 3.9 C 10.6 C 97 % 1022.2 hPa 0.3 l/m 5.8 km/h (2 Bft) O-SO 112 11.3 km/h (2 Bft)
28.04.2017 21:35 4.8 C 10.6 C 92 % 1019.9 hPa 0.0 l/m 2.5 km/h (1 Bft) SO 137 14.5 km/h (3 Bft)
28.04.2017 20:35 4.6 C 11.1 C 93 % 1019.3 hPa 0.0 l/m 12.0 km/h (2 Bft) S-SW 208 21.7 km/h (4 Bft)
28.04.2017 20:00 4.6 C 11.1 C 96 % 1018.8 hPa 0.0 l/m 11.0 km/h (2 Bft) S-SO 151 14.5 km/h (3 Bft)
_ Min-Zeit 05:12 21:00 18:25 19:15 - 23:39 - - 23:54
Minimum _ 0.3 C 10.6 C 42 % 1015.5 hPa - 0.0 km/h (0 Bft) - - 0.0 km/h (0 Bft)
_ Max-Zeit 18:55 19:00 00:53 01:20 22:00 21:05 - - 20:55
Maximum _ 14.3 C 12.8 C 100 % 1022.8 hPa 0.3 l/m 23.9 km/h
SW (4 Bft)
- - 33.3 km/h
W-SW (5 Bft)
Durchschnitt _ 5.7 C 10.9 C 83 % 1019.8 hPa #0.5 l/m 5.4 km/h (1 Bft) SO - 9.6 km/h (2 Bft)